Hauptseite
METAR-TAF:

METAR-TAF

Flughäfen :

Souillac

Brive-la-Gaillarde, Frankreich

Breite: 45-02-28N, Länge: 001-28-59E, Höhe: 311 m

Beobachtung

Neuester Wetterbericht von vor 26 Minuten, um 19:00 UTC
Wind 3 kt aus Nordwest, variierte zwischen West und Nord/Nordost
Temperatur 32°C
Luftfeuchtigkeit 24%
Luftdruck 1015 hPa
Sichtweite 10 km oder mehr
keine Wolken unter 1500 m und keine Kumulonimbus oder Gewitterwolken

METAR: LFSL 061900Z AUTO 32003KT 260V020 CAVOK 32/09 Q1015 NOSIG

Zeit: 21:26 (19:26 UTC)

Prognose

Neuester Wetterbericht von vor 5 Stunden und 26 Minuten, um 14:00 UTC
Gültige Prognose vom 06 um 15 UTC bis 06 um 24 UTC
Wind 4 kt aus unterschiedlichen Richtungen
Sichtweite 10 km oder mehr
keine Wolken unter 1500 m und keine Kumulonimbus oder Gewitterwolken

TAF: LFSL 061400Z 0615/0624 VRB04KT CAVOK

Wetterbeobachtungen und Prognosen von mehr als 4000 Flughäfen (METAR und TAF Bericht).

Die verfügbaren Stationen werden durch gelbe und rote Markierungen auf der Karte dargestellt.

Führen Sie die Maus auf sie, um den Namen der Station zu sehen.

Darauf klicken, um die Beobachtung von Wetterbeobachtungen und Prognosen zu sehen.

Um die Karte zu ändern : klicken Sie auf den grünen Tasten mit einem schwarzen Kreuz Zum Vergrößern, auf den grünen Button mit einem Gedankenstrich zu verkleinern, oder auf die grünen Pfeile für benachbarte Karten.


METAR-TAF: